Terminal Aerodrome Forecast
Issued by NWS Wichita, KS

Home | Current Version | Previous Version | Text Only | Print | Product List | Glossary Off
Versions: 1 2 3 4 5 6 7 8 9 10 11 12 13 14 15

000
FTUS43 KICT 240335 AAC
TAFICT
TAF AMD
KICT 240335Z 2404/2424 33026G39KT P6SM OVC015
     FM240415 34017G26KT P6SM OVC013
     FM241100 32017G25KT P6SM OVC022=

USA.gov is the U.S. government's official web portal to all federal, state and local government web resources and services.